Terminal Aerodrome Forecast
Issued by NWS

Home | Current Version | Previous Version | Text Only | Print | Product List | Glossary On
Versions: 1 2 3 4 5 6 7 8 9 10 11 12 13 14 15 16 17 18 19 20 21 22 23 24 25 26
000
FTUS43 KMKX 191120
TAFENW
TAF
KENW 191120Z 1912/2012 35011KT P6SM FEW250
     FM191400 35011G19KT P6SM FEW200
     FM192300 32010KT P6SM SKC
     FM200800 VRB04KT P6SM FEW060
     FM200900 VRB03KT P6SM FEW050
     FM201000 VRB03KT 2SM BR FEW040=

USA.gov is the U.S. government's official web portal to all federal, state and local government web resources and services.